createdAt,value
2022-11-24T00:01:52.455Z,99873.14
2022-11-24T00:04:23.785Z,99882.55
2022-11-24T00:06:53.321Z,99886.84
2022-11-24T00:09:25.050Z,99886.84
2022-11-24T00:11:53.922Z,99884.33
2022-11-24T00:14:28.160Z,99888.66
2022-11-24T00:16:56.989Z,99889.54
2022-11-24T00:19:28.221Z,99894.66
2022-11-24T00:21:58.884Z,99898.88
2022-11-24T00:24:29.537Z,99887.73
2022-11-24T00:26:58.326Z,99887.67
2022-11-24T00:29:27.150Z,99879.86
2022-11-24T00:31:57.550Z,99883.17
2022-11-24T00:34:26.510Z,99895.14
2022-11-24T00:36:57.988Z,99892.55
2022-11-24T00:39:26.864Z,99877.99
2022-11-24T00:41:56.268Z,99881.30
2022-11-24T00:44:28.177Z,99875.30
2022-11-24T00:46:59.564Z,99886.38
2022-11-24T00:49:29.628Z,99888.97
2022-11-24T00:51:58.387Z,99892.45
2022-11-24T00:54:27.270Z,99884.78
2022-11-24T00:56:56.593Z,99889.14
2022-11-24T00:59:25.582Z,99894.29
2022-11-24T01:01:55.050Z,99878.13
2022-11-24T01:04:24.021Z,99870.55
2022-11-24T01:06:55.922Z,99873.11
2022-11-24T01:09:26.743Z,99878.26
2022-11-24T01:12:01.811Z,99871.44
2022-11-24T01:14:34.562Z,99875.73
2022-11-24T01:17:03.768Z,99875.73
2022-11-24T01:19:32.986Z,99874.06
2022-11-24T01:22:04.430Z,99877.47
2022-11-24T01:24:33.390Z,99877.50
2022-11-24T01:27:03.777Z,99881.86
2022-11-24T01:29:32.544Z,99884.45
2022-11-24T01:32:02.568Z,99881.90
2022-11-24T01:34:31.996Z,99882.78
2022-11-24T01:37:01.168Z,99885.38
2022-11-24T01:39:32.396Z,99874.25
2022-11-24T01:42:02.329Z,99886.23
2022-11-24T01:44:38.390Z,99878.65
2022-11-24T01:47:27.869Z,99879.56
2022-11-24T01:50:03.102Z,99877.04
2022-11-24T01:52:36.911Z,99872.74
2022-11-24T01:55:13.154Z,99875.27
2022-11-24T01:57:50.156Z,99882.09
2022-11-24T02:00:19.582Z,99882.13
2022-11-24T02:02:49.828Z,99879.60
2022-11-24T02:05:23.799Z,99883.89
2022-11-24T02:07:56.600Z,99879.66
2022-11-24T02:10:28.374Z,99881.34
2022-11-24T02:13:00.252Z,99879.70
2022-11-24T02:15:30.691Z,99879.70
2022-11-24T02:18:00.055Z,99881.47
2022-11-24T02:20:28.739Z,99882.38
2022-11-24T02:23:09.787Z,99880.64
2022-11-24T02:25:49.293Z,99885.83
2022-11-24T02:28:20.826Z,99886.68
2022-11-24T02:30:50.866Z,99876.45
2022-11-24T02:33:22.061Z,99878.97
2022-11-24T02:35:53.087Z,99877.23
2022-11-24T02:38:31.154Z,99872.94
2022-11-24T02:41:02.969Z,99875.50
2022-11-24T02:43:35.837Z,99876.31
2022-11-24T02:46:05.384Z,99881.44
2022-11-24T02:48:36.747Z,99873.76
2022-11-24T02:51:06.523Z,99873.80
2022-11-24T02:53:37.957Z,99875.50
2022-11-24T02:56:08.109Z,99878.15
2022-11-24T02:58:36.777Z,99873.86
2022-11-24T03:01:05.870Z,99877.27
2022-11-24T03:03:34.975Z,99868.77
2022-11-24T03:06:07.007Z,99877.30
2022-11-24T03:08:35.872Z,99870.47
2022-11-24T03:11:05.641Z,99878.19
2022-11-24T03:13:34.220Z,99886.65
2022-11-24T03:16:02.946Z,99876.34
2022-11-24T03:18:31.545Z,99872.88
2022-11-24T03:21:01.172Z,99872.88
2022-11-24T03:23:29.884Z,99874.55
2022-11-24T03:26:08.992Z,99880.55
2022-11-24T03:28:37.606Z,99871.98
2022-11-24T03:31:06.859Z,99875.37
2022-11-24T03:33:35.942Z,99875.27
2022-11-24T03:36:09.072Z,99872.71
2022-11-24T03:38:38.157Z,99884.69
2022-11-24T03:41:06.888Z,99879.56
2022-11-24T03:43:40.435Z,99881.20
2022-11-24T03:46:12.885Z,99887.11
2022-11-24T03:48:41.923Z,99886.23
2022-11-24T03:51:11.324Z,99895.64
2022-11-24T03:53:40.485Z,99895.70
2022-11-24T03:56:09.457Z,99895.70
2022-11-24T03:58:38.078Z,99898.27
2022-11-24T04:01:06.710Z,99895.64
2022-11-24T04:03:35.405Z,99893.15
2022-11-24T04:06:06.560Z,99896.52
2022-11-24T04:08:35.633Z,99905.88
2022-11-24T04:11:04.895Z,99898.20
2022-11-24T04:13:33.606Z,99899.94
2022-11-24T04:16:06.244Z,99898.27
2022-11-24T04:18:37.751Z,99892.27
2022-11-24T04:21:06.598Z,99894.00
2022-11-24T04:23:35.253Z,99886.33
2022-11-24T04:26:04.079Z,99888.91
2022-11-24T04:28:38.043Z,99898.30
2022-11-24T04:31:12.162Z,99893.18
2022-11-24T04:33:41.064Z,99892.33
2022-11-24T04:36:10.300Z,99894.82
2022-11-24T04:39:22.852Z,99898.16
2022-11-24T04:41:28.333Z,99905.88
2022-11-24T04:43:57.231Z,99906.79
2022-11-24T04:46:37.859Z,99913.64
2022-11-24T04:49:11.008Z,99918.77
2022-11-24T04:51:40.242Z,99917.91
2022-11-24T04:54:11.952Z,99919.58
2022-11-24T04:56:41.451Z,99921.28
2022-11-24T04:59:17.070Z,99923.02
2022-11-24T05:01:49.665Z,99919.61
2022-11-24T05:04:20.547Z,99924.73
2022-11-24T05:06:49.271Z,99930.73
2022-11-24T05:09:18.289Z,99929.03
2022-11-24T05:11:51.387Z,99933.39
2022-11-24T05:14:20.501Z,99936.77
2022-11-24T05:16:49.840Z,99937.63
2022-11-24T05:19:18.592Z,99923.98
2022-11-24T05:21:48.579Z,99937.59
2022-11-24T05:24:17.218Z,99939.33
2022-11-24T05:26:45.905Z,99933.26
2022-11-24T05:31:59.076Z,99940.87
2022-11-24T05:34:28.255Z,99939.13
2022-11-24T05:37:02.427Z,99942.58
2022-11-24T05:39:38.246Z,99932.37
2022-11-24T05:42:23.437Z,99945.16
2022-11-24T05:44:52.806Z,99946.88
2022-11-24T05:47:25.329Z,99954.55
2022-11-24T05:49:56.401Z,99950.28
2022-11-24T05:52:28.130Z,99955.40
2022-11-24T05:54:56.762Z,99956.28
2022-11-24T05:57:28.245Z,99959.70
2022-11-24T05:59:56.867Z,99964.81
2022-11-24T06:02:31.960Z,99963.11
2022-11-24T06:05:00.597Z,99963.95
2022-11-24T06:07:29.273Z,99966.52
2022-11-24T06:09:57.846Z,99961.41
2022-11-24T06:12:26.688Z,99967.41
2022-11-24T06:14:55.479Z,99966.55
2022-11-24T06:17:24.569Z,99975.08
2022-11-24T06:19:53.331Z,99968.29
2022-11-24T06:22:21.932Z,99975.15
2022-11-24T06:24:50.624Z,99975.97
2022-11-24T06:27:19.190Z,99977.77
2022-11-24T06:29:47.720Z,99981.22
2022-11-24T06:32:19.663Z,99975.18
2022-11-24T06:34:49.106Z,99971.84
2022-11-24T06:37:18.410Z,99970.20
2022-11-24T06:39:48.797Z,99981.39
2022-11-24T06:42:18.562Z,99972.86
2022-11-24T06:44:47.493Z,99972.04
2022-11-24T06:47:16.609Z,99974.63
2022-11-24T06:49:46.875Z,99981.52
2022-11-24T06:52:17.576Z,99985.92
2022-11-24T06:54:46.514Z,99988.52
2022-11-24T06:57:18.150Z,99987.77
2022-11-24T06:59:49.299Z,99986.94
2022-11-24T07:02:18.094Z,99978.44
2022-11-24T07:04:47.562Z,99981.00
2022-11-24T07:07:17.869Z,99983.59
2022-11-24T07:09:46.613Z,99983.63
2022-11-24T07:12:16.001Z,99991.41
2022-11-24T07:14:47.810Z,99987.14
2022-11-24T07:17:16.979Z,99984.58
2022-11-24T07:19:45.673Z,99984.64
2022-11-24T07:22:15.536Z,99992.36
2022-11-24T07:24:44.076Z,99990.72
2022-11-24T07:27:12.826Z,100002.70
2022-11-24T07:29:41.918Z,100007.03
2022-11-24T07:32:10.729Z,100008.73
2022-11-24T07:34:39.616Z,100003.65
2022-11-24T07:37:08.404Z,100006.23
2022-11-24T07:39:37.223Z,100007.13
2022-11-24T07:42:06.440Z,100009.69
2022-11-24T07:44:35.530Z,100006.23
2022-11-24T07:47:04.527Z,100001.12
2022-11-24T07:49:33.122Z,100000.30
2022-11-24T07:52:01.906Z,99997.80
2022-11-24T07:54:30.905Z,100000.36
2022-11-24T07:56:59.502Z,100003.75
2022-11-24T07:59:28.195Z,100005.48
2022-11-24T08:01:57.107Z,100011.56
2022-11-24T08:04:25.894Z,100016.67
2022-11-24T08:06:54.659Z,100017.50
2022-11-24T08:09:23.557Z,100020.91
2022-11-24T08:11:52.273Z,100026.95
2022-11-24T08:14:21.027Z,100025.31
2022-11-24T08:16:50.767Z,100019.47
2022-11-24T08:19:19.803Z,100017.03
2022-11-24T08:21:48.572Z,100025.63
2022-11-24T08:24:17.852Z,100024.88
2022-11-24T08:26:46.928Z,100011.31
2022-11-24T08:29:16.492Z,100021.72
2022-11-24T08:31:45.480Z,100015.04
2022-11-24T08:34:14.452Z,100018.55
2022-11-24T08:36:43.092Z,100017.73
2022-11-24T08:39:11.826Z,100027.16
2022-11-24T08:41:41.135Z,100019.47
2022-11-24T08:44:10.201Z,100027.18
2022-11-24T08:46:39.883Z,100023.73
2022-11-24T08:49:09.432Z,100019.52
2022-11-24T08:51:38.615Z,100021.30
2022-11-24T08:54:09.651Z,100018.80
2022-11-24T08:56:38.367Z,100026.57
2022-11-24T08:59:07.379Z,100030.81
2022-11-24T09:01:36.612Z,100029.16
2022-11-24T09:04:06.005Z,100027.55
2022-11-24T09:06:35.065Z,100031.05
2022-11-24T09:09:04.158Z,100035.45
2022-11-24T09:11:34.639Z,100033.83
2022-11-24T09:14:04.407Z,100033.86
2022-11-24T09:16:33.500Z,100039.05
2022-11-24T09:19:04.722Z,100044.20
2022-11-24T09:21:37.310Z,100046.77
2022-11-24T09:24:07.645Z,100046.83
2022-11-24T09:26:43.135Z,100047.77
2022-11-24T09:29:15.722Z,100050.33
2022-11-24T09:31:45.286Z,100053.63
2022-11-24T09:34:15.908Z,100057.72
2022-11-24T09:36:45.304Z,100052.56
2022-11-24T09:39:14.384Z,100059.49
2022-11-24T09:41:57.900Z,100061.33
2022-11-24T09:44:46.239Z,100064.89
2022-11-24T09:47:25.741Z,100058.94
2022-11-24T09:50:01.020Z,100069.25
2022-11-24T09:52:40.874Z,100066.78
2022-11-24T09:55:28.355Z,100071.91
2022-11-24T09:58:09.490Z,100071.91
2022-11-24T10:00:38.784Z,100072.73
2022-11-24T10:03:18.523Z,100071.05
2022-11-24T10:05:51.167Z,100066.75
2022-11-24T10:08:34.096Z,100065.06
2022-11-24T10:11:11.347Z,100064.24
2022-11-24T10:13:59.798Z,100069.44
2022-11-24T10:16:45.358Z,100063.42
2022-11-24T10:19:36.318Z,100070.34
2022-11-24T10:22:23.637Z,100066.19
2022-11-24T10:25:12.053Z,100059.44
2022-11-24T10:27:44.111Z,100054.28
2022-11-24T10:30:19.618Z,100052.63
2022-11-24T10:32:49.986Z,100061.27
2022-11-24T10:35:27.609Z,100060.47
2022-11-24T10:38:08.659Z,100059.61
2022-11-24T10:40:56.405Z,100065.66
2022-11-24T10:43:28.020Z,100059.81
2022-11-24T10:46:08.123Z,100060.75
2022-11-24T10:48:44.272Z,100060.80
2022-11-24T10:51:39.593Z,100065.94
2022-11-24T10:54:15.771Z,100063.26
2022-11-24T10:56:48.747Z,100060.70
2022-11-24T10:59:37.518Z,100063.34
2022-11-24T11:02:29.363Z,100058.22
2022-11-24T11:04:58.200Z,100065.09
2022-11-24T11:07:27.456Z,100054.82
2022-11-24T11:10:27.544Z,100054.91
2022-11-24T11:12:56.172Z,100058.41
2022-11-24T11:15:29.112Z,100053.36
2022-11-24T11:18:00.440Z,100060.34
2022-11-24T11:20:31.937Z,100058.72
2022-11-24T11:23:13.477Z,100060.45
2022-11-24T11:25:43.297Z,100064.70
2022-11-24T11:28:23.398Z,100068.09
2022-11-24T11:31:16.820Z,100072.48
2022-11-24T11:34:05.925Z,100067.34
2022-11-24T11:36:41.401Z,100079.35
2022-11-24T11:39:21.151Z,100076.77
2022-11-24T11:41:54.947Z,100081.81
2022-11-24T11:44:35.233Z,100083.44
2022-11-24T11:47:14.104Z,100087.66
2022-11-24T11:49:44.180Z,100090.22
2022-11-24T11:52:43.531Z,100094.53
2022-11-24T11:55:45.311Z,100085.95
2022-11-24T11:59:01.100Z,100091.91
2022-11-24T12:02:06.838Z,100096.09
2022-11-24T12:04:49.831Z,100095.13
2022-11-24T12:07:45.662Z,100095.06
2022-11-24T12:10:24.485Z,100094.16
2022-11-24T12:13:14.725Z,100095.78
2022-11-24T12:15:48.257Z,100091.56
2022-11-24T12:21:29.761Z,100084.87
2022-11-24T12:24:10.282Z,100083.23
2022-11-24T12:26:49.637Z,100077.28
2022-11-24T12:29:45.372Z,100071.23
2022-11-24T12:32:34.471Z,100075.45
2022-11-24T12:35:15.342Z,100080.59
2022-11-24T12:37:57.391Z,100083.12
2022-11-24T12:40:46.572Z,100076.17
2022-11-24T12:43:27.069Z,100076.17
2022-11-24T12:46:01.846Z,100072.78
2022-11-24T12:48:57.323Z,100071.16
2022-11-24T12:51:32.064Z,100078.91
2022-11-24T12:54:05.600Z,100076.40
2022-11-24T12:56:42.362Z,100076.45
2022-11-24T12:59:25.500Z,100083.27
2022-11-24T13:02:11.467Z,100079.84
2022-11-24T13:04:46.807Z,100078.05
2022-11-24T13:07:20.963Z,100080.61
2022-11-24T13:10:40.148Z,100077.22
2022-11-24T13:13:12.606Z,100077.20
2022-11-24T13:19:17.363Z,100078.20
2022-11-24T13:22:09.726Z,100079.91
2022-11-24T13:24:40.200Z,100078.20
2022-11-24T13:27:35.485Z,100081.53
2022-11-24T13:30:54.006Z,100083.12
2022-11-24T13:33:37.407Z,100084.70
2022-11-24T13:36:30.700Z,100080.36
2022-11-24T13:39:00.277Z,100079.48
2022-11-24T13:42:10.542Z,100083.78
2022-11-24T13:45:01.150Z,100081.19
2022-11-24T13:47:39.100Z,100078.59
2022-11-24T13:50:22.996Z,100086.20
2022-11-24T13:53:00.655Z,100080.13
2022-11-24T13:55:38.209Z,100082.63
2022-11-24T13:58:29.637Z,100093.72
2022-11-24T14:01:05.886Z,100095.34
2022-11-24T14:03:36.909Z,100093.57
2022-11-24T14:06:06.199Z,100096.94
2022-11-24T14:08:37.588Z,100105.36
2022-11-24T14:11:13.825Z,100100.20
2022-11-24T14:13:42.908Z,100106.16
2022-11-24T14:16:17.198Z,100095.84
2022-11-24T14:18:48.046Z,100096.63
2022-11-24T14:21:24.367Z,100101.64
2022-11-24T14:23:55.912Z,100107.56
2022-11-24T14:26:30.539Z,100113.41
2022-11-24T14:29:06.292Z,100122.75
2022-11-24T14:31:35.611Z,100121.86
2022-11-24T14:34:20.697Z,100122.69
2022-11-24T14:36:50.214Z,100124.33
2022-11-24T14:39:22.456Z,100129.36
2022-11-24T14:41:55.653Z,100138.77
2022-11-24T14:44:26.607Z,100130.98
2022-11-24T14:47:03.923Z,100135.19
2022-11-24T14:49:34.365Z,100138.56
2022-11-24T14:52:09.260Z,100133.41
2022-11-24T14:54:46.498Z,100134.27
2022-11-24T14:57:29.810Z,100136.80
2022-11-24T15:00:15.086Z,100147.87
2022-11-24T15:02:47.777Z,100145.30
2022-11-24T15:05:18.412Z,100142.74
2022-11-24T15:07:49.678Z,100143.56
2022-11-24T15:10:22.574Z,100145.20
2022-11-24T15:12:56.226Z,100146.91
2022-11-24T15:15:30.481Z,100141.72
2022-11-24T15:17:59.298Z,100151.12
2022-11-24T15:20:31.620Z,100161.33
2022-11-24T15:23:23.084Z,100175.00
2022-11-24T15:25:53.768Z,100171.59
2022-11-24T15:28:25.257Z,100164.75
2022-11-24T15:30:54.550Z,100167.31
2022-11-24T15:33:23.881Z,100167.28
2022-11-24T15:35:53.059Z,100178.38
2022-11-24T15:38:25.077Z,100176.64
2022-11-24T15:40:57.695Z,100181.84
2022-11-24T15:43:30.805Z,100179.20
2022-11-24T15:46:00.498Z,100181.73
2022-11-24T15:48:29.819Z,100176.64
2022-11-24T15:51:01.264Z,100175.78
2022-11-24T15:53:32.914Z,100180.09
2022-11-24T15:56:03.238Z,100180.91
2022-11-24T15:58:31.980Z,100186.03
2022-11-24T16:01:00.736Z,100184.33
2022-11-24T16:06:24.596Z,100184.30
2022-11-24T16:08:54.567Z,100184.30
2022-11-24T16:11:23.778Z,100186.00
2022-11-24T16:13:54.060Z,100191.98
2022-11-24T16:16:25.024Z,100196.29
2022-11-24T16:18:53.857Z,100203.97
2022-11-24T16:21:22.738Z,100198.84
2022-11-24T16:23:51.468Z,100199.70
2022-11-24T16:26:20.883Z,100213.41
2022-11-24T16:28:49.751Z,100214.22
2022-11-24T16:31:19.290Z,100212.48
2022-11-24T16:33:48.627Z,100218.45
2022-11-24T16:36:17.341Z,100216.75
2022-11-24T16:38:46.091Z,100221.80
2022-11-24T16:41:15.422Z,100220.88
2022-11-24T16:43:44.133Z,100224.23
2022-11-24T16:46:19.354Z,100228.50
2022-11-24T16:48:52.626Z,100227.61
2022-11-24T16:51:23.871Z,100227.57
2022-11-24T16:53:58.637Z,100232.70
2022-11-24T16:56:28.652Z,100231.88
2022-11-24T16:58:57.395Z,100235.30
2022-11-24T17:01:26.193Z,100233.66
2022-11-24T17:03:55.660Z,100236.22
2022-11-24T17:06:25.474Z,100237.92
2022-11-24T17:08:56.145Z,100237.92
2022-11-24T17:11:29.287Z,100245.61
2022-11-24T17:14:01.108Z,100252.52
2022-11-24T17:16:32.971Z,100254.26
2022-11-24T17:19:07.896Z,100259.38
2022-11-24T17:21:37.955Z,100256.00
2022-11-24T17:24:15.230Z,100261.16
2022-11-24T17:26:55.784Z,100252.66
2022-11-24T17:29:25.374Z,100258.64
2022-11-24T17:31:54.141Z,100262.09
2022-11-24T17:34:25.367Z,100268.13
2022-11-24T17:36:54.619Z,100276.64
2022-11-24T17:39:28.295Z,100267.21
2022-11-24T17:41:57.725Z,100274.90
2022-11-24T17:44:26.737Z,100280.02
2022-11-24T17:46:55.612Z,100280.84
2022-11-24T17:49:24.489Z,100286.78
2022-11-24T17:51:53.891Z,100278.28
2022-11-24T17:54:45.511Z,100289.38
2022-11-24T17:57:13.064Z,100288.53
2022-11-24T17:59:41.989Z,100298.74
2022-11-24T18:02:10.910Z,100299.56
2022-11-24T18:04:40.192Z,100296.11
2022-11-24T18:07:09.037Z,100299.56
2022-11-24T18:09:38.149Z,100297.89
2022-11-24T18:12:08.254Z,100302.16
2022-11-24T18:14:37.448Z,100302.98
2022-11-24T18:17:07.002Z,100304.69
2022-11-24T18:19:35.981Z,100303.80
2022-11-24T18:22:04.805Z,100307.25
2022-11-24T18:24:33.562Z,100298.67
2022-11-24T18:27:06.246Z,100303.80
2022-11-24T18:29:35.939Z,100303.86
2022-11-24T18:32:06.902Z,100298.74
2022-11-24T18:34:37.163Z,100306.47
2022-11-24T18:37:16.072Z,100304.83
2022-11-24T18:39:44.705Z,100308.28
2022-11-24T18:42:13.556Z,100307.47
2022-11-24T18:44:42.493Z,100298.95
2022-11-24T18:47:11.624Z,100302.41
2022-11-24T18:49:40.440Z,100289.59
2022-11-24T18:52:10.457Z,100295.58
2022-11-24T18:54:39.397Z,100301.52
2022-11-24T18:57:08.818Z,100301.52
2022-11-24T18:59:39.166Z,100304.97
2022-11-24T19:02:13.118Z,100299.06
2022-11-24T19:04:50.736Z,100302.48
2022-11-24T19:07:21.436Z,100305.90
2022-11-24T19:09:51.170Z,100307.53
2022-11-24T19:12:20.145Z,100319.45
2022-11-24T19:14:49.326Z,100310.92
2022-11-24T19:17:18.159Z,100315.97
2022-11-24T19:19:50.702Z,100319.38
2022-11-24T19:22:20.213Z,100321.06
2022-11-24T19:24:50.676Z,100320.95
2022-11-24T19:27:21.407Z,100317.50
2022-11-24T19:29:51.092Z,100314.93
2022-11-24T19:32:27.351Z,100320.05
2022-11-24T19:34:56.110Z,100314.05
2022-11-24T19:37:26.156Z,100313.23
2022-11-24T19:39:54.915Z,100313.23
2022-11-24T19:42:26.164Z,100314.93
2022-11-24T19:44:56.878Z,100320.09
2022-11-24T19:47:27.308Z,100319.31
2022-11-24T19:49:56.166Z,100323.52
2022-11-24T19:52:27.926Z,100326.14
2022-11-24T19:54:59.321Z,100325.22
2022-11-24T19:57:28.528Z,100331.98
2022-11-24T19:59:57.460Z,100325.07
2022-11-24T20:02:29.030Z,100329.31
2022-11-24T20:04:58.350Z,100328.41
2022-11-24T20:07:30.029Z,100330.91
2022-11-24T20:10:07.374Z,100335.10
2022-11-24T20:12:36.758Z,100334.25
2022-11-24T20:15:08.117Z,100341.08
2022-11-24T20:17:37.349Z,100344.49
2022-11-24T20:20:07.872Z,100348.84
2022-11-24T20:22:36.617Z,100347.98
2022-11-24T20:25:08.790Z,100353.15
2022-11-24T20:27:37.661Z,100350.58
2022-11-24T20:30:10.196Z,100353.22
2022-11-24T20:32:39.092Z,100348.91
2022-11-24T20:35:13.556Z,100354.03
2022-11-24T20:37:48.103Z,100356.63
2022-11-24T20:40:17.232Z,100356.59
2022-11-24T20:42:46.155Z,100356.59
2022-11-24T20:45:17.902Z,100364.28
2022-11-24T20:47:46.660Z,100361.61
2022-11-24T20:50:15.454Z,100365.03
2022-11-24T20:52:44.168Z,100371.86
2022-11-24T20:55:14.216Z,100372.71
2022-11-24T20:57:45.624Z,100376.16
2022-11-24T21:00:15.762Z,100373.64
2022-11-24T21:02:44.541Z,100374.53
2022-11-24T21:05:14.245Z,100377.95
2022-11-24T21:07:45.414Z,100382.22
2022-11-24T21:10:14.404Z,100385.67
2022-11-24T21:12:43.315Z,100383.96
2022-11-24T21:15:16.468Z,100379.70
2022-11-24T21:17:45.441Z,100386.56
2022-11-24T21:20:14.295Z,100391.73
2022-11-24T21:22:43.035Z,100396.85
2022-11-24T21:25:11.887Z,100397.67
2022-11-24T21:27:41.069Z,100395.11
2022-11-24T21:30:12.236Z,100401.05
2022-11-24T21:32:41.314Z,100403.61
2022-11-24T21:35:10.588Z,100406.17
2022-11-24T21:37:39.507Z,100404.46
2022-11-24T21:40:09.955Z,100403.61
2022-11-24T21:42:38.825Z,100397.67
2022-11-24T21:45:11.301Z,100402.05
2022-11-24T21:47:42.120Z,100407.17
2022-11-24T21:50:12.278Z,100414.91
2022-11-24T21:52:41.150Z,100406.36
2022-11-24T21:55:10.255Z,100406.28
2022-11-24T21:57:39.104Z,100416.61
2022-11-24T22:00:09.538Z,100416.49
2022-11-24T22:02:38.536Z,100418.17
2022-11-24T22:05:10.477Z,100418.17
2022-11-24T22:07:40.081Z,100413.05
2022-11-24T22:10:13.484Z,100415.56
2022-11-24T22:12:42.942Z,100412.96
2022-11-24T22:15:12.025Z,100415.45
2022-11-24T22:17:40.779Z,100417.97
2022-11-24T22:20:11.774Z,100423.95
2022-11-24T22:22:40.553Z,100423.09
2022-11-24T22:25:10.160Z,100418.79
2022-11-24T22:27:38.988Z,100412.84
2022-11-24T22:30:10.528Z,100418.83
2022-11-24T22:32:39.352Z,100417.97
2022-11-24T22:35:10.041Z,100414.59
2022-11-24T22:37:39.073Z,100414.59
2022-11-24T22:40:09.903Z,100418.09
2022-11-24T22:42:41.699Z,100433.50
2022-11-24T22:45:11.521Z,100427.52
2022-11-24T22:47:40.300Z,100434.36
2022-11-24T22:50:14.251Z,100436.92
2022-11-24T22:52:43.027Z,100441.23
2022-11-24T22:55:11.826Z,100433.54
2022-11-24T22:57:48.051Z,100428.41
2022-11-24T23:00:21.463Z,100430.13
2022-11-24T23:02:51.474Z,100435.20
2022-11-24T23:05:24.132Z,100436.84
2022-11-24T23:07:53.573Z,100432.56
2022-11-24T23:10:27.393Z,100436.06
2022-11-24T23:12:56.327Z,100436.92
2022-11-24T23:15:24.962Z,100435.25
2022-11-24T23:17:53.510Z,100437.84
2022-11-24T23:20:24.466Z,100440.41
2022-11-24T23:22:56.427Z,100441.30
2022-11-24T23:25:25.018Z,100440.48
2022-11-24T23:27:53.539Z,100427.67
2022-11-24T23:30:24.502Z,100434.55
2022-11-24T23:32:58.340Z,100440.52
2022-11-24T23:35:29.829Z,100437.96
2022-11-24T23:38:07.346Z,100432.84
2022-11-24T23:40:36.834Z,100428.53
2022-11-24T23:43:11.226Z,100435.40
2022-11-24T23:45:39.771Z,100434.58
2022-11-24T23:48:08.367Z,100431.98
2022-11-24T23:50:37.080Z,100434.55
2022-11-24T23:53:05.863Z,100432.02
2022-11-24T23:55:34.536Z,100437.96
2022-11-24T23:58:04.822Z,100427.59
